sensor_id;sensor_type;location;lat;lon;timestamp;P1;durP1;ratioP1;P2;durP2;ratioP2
41829;SDS011;38614;43.472;23.936;2023-03-25T00:00:07;18.50;;;9.18;;
41829;SDS011;38614;43.472;23.936;2023-03-25T00:03:02;16.20;;;8.10;;
41829;SDS011;38614;43.472;23.936;2023-03-25T00:05:53;13.98;;;8.43;;
41829;SDS011;38614;43.472;23.936;2023-03-25T00:08:42;17.27;;;10.65;;
41829;SDS011;38614;43.472;23.936;2023-03-25T00:11:30;14.15;;;8.55;;
41829;SDS011;38614;43.472;23.936;2023-03-25T00:14:17;9.52;;;6.68;;
41829;SDS011;38614;43.472;23.936;2023-03-25T00:17:07;8.75;;;5.85;;
41829;SDS011;38614;43.472;23.936;2023-03-25T00:19:56;8.38;;;6.50;;
41829;SDS011;38614;43.472;23.936;2023-03-25T00:22:46;11.27;;;9.40;;
41829;SDS011;38614;43.472;23.936;2023-03-25T00:25:36;22.50;;;9.10;;
41829;SDS011;38614;43.472;23.936;2023-03-25T00:28:23;11.10;;;6.72;;
41829;SDS011;38614;43.472;23.936;2023-03-25T00:31:13;16.67;;;7.78;;
41829;SDS011;38614;43.472;23.936;2023-03-25T00:34:01;6.78;;;5.93;;
41829;SDS011;38614;43.472;23.936;2023-03-25T00:36:49;18.58;;;8.93;;
41829;SDS011;38614;43.472;23.936;2023-03-25T00:39:37;15.95;;;6.22;;
41829;SDS011;38614;43.472;23.936;2023-03-25T00:42:25;9.23;;;6.70;;
41829;SDS011;38614;43.472;23.936;2023-03-25T00:45:13;9.48;;;6.22;;
41829;SDS011;38614;43.472;23.936;2023-03-25T00:48:01;8.45;;;6.18;;
41829;SDS011;38614;43.472;23.936;2023-03-25T00:50:52;10.43;;;7.33;;
41829;SDS011;38614;43.472;23.936;2023-03-25T00:53:40;10.75;;;6.43;;
41829;SDS011;38614;43.472;23.936;2023-03-25T00:56:29;11.82;;;5.82;;
41829;SDS011;38614;43.472;23.936;2023-03-25T00:59:18;13.05;;;6.18;;
41829;SDS011;38614;43.472;23.936;2023-03-25T01:02:06;16.83;;;6.53;;
41829;SDS011;38614;43.472;23.936;2023-03-25T01:04:55;20.95;;;7.22;;
41829;SDS011;38614;43.472;23.936;2023-03-25T01:07:43;14.43;;;5.80;;
41829;SDS011;38614;43.472;23.936;2023-03-25T01:10:33;11.75;;;6.65;;
41829;SDS011;38614;43.472;23.936;2023-03-25T01:13:23;9.77;;;5.32;;
41829;SDS011;38614;43.472;23.936;2023-03-25T01:16:10;8.68;;;4.95;;
41829;SDS011;38614;43.472;23.936;2023-03-25T01:18:59;8.35;;;5.85;;
41829;SDS011;38614;43.472;23.936;2023-03-25T01:21:46;12.05;;;5.15;;
41829;SDS011;38614;43.472;23.936;2023-03-25T01:24:35;9.25;;;5.82;;
41829;SDS011;38614;43.472;23.936;2023-03-25T01:27:23;12.43;;;5.97;;
41829;SDS011;38614;43.472;23.936;2023-03-25T01:30:11;14.45;;;5.53;;
41829;SDS011;38614;43.472;23.936;2023-03-25T01:33:01;10.57;;;6.00;;
41829;SDS011;38614;43.472;23.936;2023-03-25T01:35:48;11.63;;;5.90;;
41829;SDS011;38614;43.472;23.936;2023-03-25T01:38:37;9.20;;;5.95;;
41829;SDS011;38614;43.472;23.936;2023-03-25T01:41:27;15.15;;;6.03;;
41829;SDS011;38614;43.472;23.936;2023-03-25T01:47:20;20.35;;;8.40;;
41829;SDS011;38614;43.472;23.936;2023-03-25T01:50:09;11.40;;;6.85;;
41829;SDS011;38614;43.472;23.936;2023-03-25T01:55:49;7.93;;;5.03;;
41829;SDS011;38614;43.472;23.936;2023-03-25T01:58:39;15.95;;;6.18;;
41829;SDS011;38614;43.472;23.936;2023-03-25T02:01:27;12.13;;;5.75;;
41829;SDS011;38614;43.472;23.936;2023-03-25T02:04:15;10.70;;;5.07;;
41829;SDS011;38614;43.472;23.936;2023-03-25T02:07:13;13.23;;;5.57;;
41829;SDS011;38614;43.472;23.936;2023-03-25T02:10:04;13.52;;;5.82;;
41829;SDS011;38614;43.472;23.936;2023-03-25T02:12:54;9.30;;;5.87;;
41829;SDS011;38614;43.472;23.936;2023-03-25T02:15:50;34.70;;;7.32;;
41829;SDS011;38614;43.472;23.936;2023-03-25T02:19:00;13.65;;;7.43;;
41829;SDS011;38614;43.472;23.936;2023-03-25T02:28:35;14.77;;;7.72;;
41829;SDS011;38614;43.472;23.936;2023-03-25T02:41:24;15.57;;;6.97;;
41829;SDS011;38614;43.472;23.936;2023-03-25T02:44:20;15.00;;;7.50;;
41829;SDS011;38614;43.472;23.936;2023-03-25T02:47:16;16.58;;;8.70;;
41829;SDS011;38614;43.472;23.936;2023-03-25T02:50:14;13.15;;;8.23;;
41829;SDS011;38614;43.472;23.936;2023-03-25T02:53:09;22.17;;;8.73;;
41829;SDS011;38614;43.472;23.936;2023-03-25T02:56:05;18.65;;;8.18;;
41829;SDS011;38614;43.472;23.936;2023-03-25T02:58:57;15.07;;;7.93;;
41829;SDS011;38614;43.472;23.936;2023-03-25T03:01:47;18.73;;;7.70;;
41829;SDS011;38614;43.472;23.936;2023-03-25T03:04:45;13.02;;;7.80;;
41829;SDS011;38614;43.472;23.936;2023-03-25T03:07:34;12.00;;;7.50;;
41829;SDS011;38614;43.472;23.936;2023-03-25T03:11:03;19.15;;;9.35;;
41829;SDS011;38614;43.472;23.936;2023-03-25T03:16:57;17.70;;;7.72;;
41829;SDS011;38614;43.472;23.936;2023-03-25T03:20:16;15.48;;;7.45;;
41829;SDS011;38614;43.472;23.936;2023-03-25T03:23:22;21.98;;;8.23;;
41829;SDS011;38614;43.472;23.936;2023-03-25T03:26:23;17.85;;;8.80;;
41829;SDS011;38614;43.472;23.936;2023-03-25T03:29:16;20.02;;;7.95;;
41829;SDS011;38614;43.472;23.936;2023-03-25T03:32:28;15.00;;;7.55;;
41829;SDS011;38614;43.472;23.936;2023-03-25T03:35:41;19.70;;;9.35;;
41829;SDS011;38614;43.472;23.936;2023-03-25T03:38:40;22.88;;;8.88;;
41829;SDS011;38614;43.472;23.936;2023-03-25T03:41:33;17.05;;;9.32;;
41829;SDS011;38614;43.472;23.936;2023-03-25T03:44:25;16.75;;;8.65;;
41829;SDS011;38614;43.472;23.936;2023-03-25T03:47:21;14.00;;;8.85;;
41829;SDS011;38614;43.472;23.936;2023-03-25T03:50:17;18.20;;;8.32;;
41829;SDS011;38614;43.472;23.936;2023-03-25T03:53:23;14.10;;;7.65;;
41829;SDS011;38614;43.472;23.936;2023-03-25T03:56:49;15.65;;;7.65;;
41829;SDS011;38614;43.472;23.936;2023-03-25T04:03:04;17.75;;;7.88;;
41829;SDS011;38614;43.472;23.936;2023-03-25T04:06:02;15.15;;;7.75;;
41829;SDS011;38614;43.472;23.936;2023-03-25T04:08:58;14.30;;;8.13;;
41829;SDS011;38614;43.472;23.936;2023-03-25T04:11:57;13.88;;;7.88;;
41829;SDS011;38614;43.472;23.936;2023-03-25T04:14:48;16.60;;;7.97;;
41829;SDS011;38614;43.472;23.936;2023-03-25T04:17:36;11.38;;;7.50;;
41829;SDS011;38614;43.472;23.936;2023-03-25T04:20:24;18.25;;;8.50;;
41829;SDS011;38614;43.472;23.936;2023-03-25T04:23:15;15.52;;;7.28;;
41829;SDS011;38614;43.472;23.936;2023-03-25T04:26:03;15.30;;;8.70;;
41829;SDS011;38614;43.472;23.936;2023-03-25T04:28:52;11.07;;;7.10;;
41829;SDS011;38614;43.472;23.936;2023-03-25T04:31:39;12.75;;;8.20;;
41829;SDS011;38614;43.472;23.936;2023-03-25T04:34:37;12.80;;;7.28;;
41829;SDS011;38614;43.472;23.936;2023-03-25T04:37:25;12.75;;;6.88;;
41829;SDS011;38614;43.472;23.936;2023-03-25T04:40:14;12.10;;;6.40;;
41829;SDS011;38614;43.472;23.936;2023-03-25T04:43:05;14.40;;;7.25;;
41829;SDS011;38614;43.472;23.936;2023-03-25T04:45:53;20.90;;;10.23;;
41829;SDS011;38614;43.472;23.936;2023-03-25T04:48:41;17.63;;;9.85;;
41829;SDS011;38614;43.472;23.936;2023-03-25T04:51:31;22.20;;;9.52;;
41829;SDS011;38614;43.472;23.936;2023-03-25T04:54:22;15.30;;;8.35;;
41829;SDS011;38614;43.472;23.936;2023-03-25T04:57:10;20.77;;;8.90;;
41829;SDS011;38614;43.472;23.936;2023-03-25T04:59:58;21.88;;;11.48;;
41829;SDS011;38614;43.472;23.936;2023-03-25T05:02:46;17.38;;;8.93;;
41829;SDS011;38614;43.472;23.936;2023-03-25T05:05:36;17.13;;;8.07;;
41829;SDS011;38614;43.472;23.936;2023-03-25T05:08:24;14.10;;;6.75;;
41829;SDS011;38614;43.472;23.936;2023-03-25T05:11:12;16.95;;;8.32;;
41829;SDS011;38614;43.472;23.936;2023-03-25T05:14:02;19.30;;;8.13;;
41829;SDS011;38614;43.472;23.936;2023-03-25T05:16:50;17.42;;;7.93;;
41829;SDS011;38614;43.472;23.936;2023-03-25T05:19:39;11.68;;;7.38;;
41829;SDS011;38614;43.472;23.936;2023-03-25T05:22:29;9.48;;;6.72;;
41829;SDS011;38614;43.472;23.936;2023-03-25T05:25:19;17.60;;;9.93;;
41829;SDS011;38614;43.472;23.936;2023-03-25T05:28:14;22.38;;;11.77;;
41829;SDS011;38614;43.472;23.936;2023-03-25T05:31:07;14.65;;;8.48;;
41829;SDS011;38614;43.472;23.936;2023-03-25T05:34:00;13.43;;;7.95;;
41829;SDS011;38614;43.472;23.936;2023-03-25T05:36:52;11.85;;;6.97;;
41829;SDS011;38614;43.472;23.936;2023-03-25T05:39:45;12.50;;;6.82;;
41829;SDS011;38614;43.472;23.936;2023-03-25T05:42:33;13.63;;;6.03;;
41829;SDS011;38614;43.472;23.936;2023-03-25T05:45:24;7.38;;;5.78;;
41829;SDS011;38614;43.472;23.936;2023-03-25T05:48:12;12.60;;;7.10;;
41829;SDS011;38614;43.472;23.936;2023-03-25T05:51:03;14.27;;;7.85;;
41829;SDS011;38614;43.472;23.936;2023-03-25T05:53:53;14.32;;;6.00;;
41829;SDS011;38614;43.472;23.936;2023-03-25T05:56:41;12.82;;;5.88;;
41829;SDS011;38614;43.472;23.936;2023-03-25T05:59:29;12.18;;;5.82;;
41829;SDS011;38614;43.472;23.936;2023-03-25T06:02:16;9.88;;;6.07;;
41829;SDS011;38614;43.472;23.936;2023-03-25T06:05:04;8.88;;;6.15;;
41829;SDS011;38614;43.472;23.936;2023-03-25T06:07:55;12.55;;;7.32;;
41829;SDS011;38614;43.472;23.936;2023-03-25T06:10:43;10.25;;;5.32;;
41829;SDS011;38614;43.472;23.936;2023-03-25T06:13:32;15.52;;;6.28;;
41829;SDS011;38614;43.472;23.936;2023-03-25T06:16:20;9.88;;;5.55;;
41829;SDS011;38614;43.472;23.936;2023-03-25T06:19:14;7.63;;;4.78;;
41829;SDS011;38614;43.472;23.936;2023-03-25T06:22:08;12.80;;;6.88;;
41829;SDS011;38614;43.472;23.936;2023-03-25T06:24:58;16.95;;;5.80;;
41829;SDS011;38614;43.472;23.936;2023-03-25T06:27:49;12.65;;;6.43;;
41829;SDS011;38614;43.472;23.936;2023-03-25T06:30:37;12.18;;;6.95;;
41829;SDS011;38614;43.472;23.936;2023-03-25T06:33:25;14.45;;;6.97;;
41829;SDS011;38614;43.472;23.936;2023-03-25T06:36:30;12.70;;;7.97;;
41829;SDS011;38614;43.472;23.936;2023-03-25T06:39:17;16.08;;;7.50;;
41829;SDS011;38614;43.472;23.936;2023-03-25T06:42:05;17.17;;;7.60;;
41829;SDS011;38614;43.472;23.936;2023-03-25T06:45:16;17.73;;;7.72;;
41829;SDS011;38614;43.472;23.936;2023-03-25T06:48:15;16.38;;;7.57;;
41829;SDS011;38614;43.472;23.936;2023-03-25T06:51:03;16.23;;;7.43;;
41829;SDS011;38614;43.472;23.936;2023-03-25T06:53:52;16.35;;;8.40;;
41829;SDS011;38614;43.472;23.936;2023-03-25T06:56:40;14.68;;;8.45;;
41829;SDS011;38614;43.472;23.936;2023-03-25T06:59:28;17.05;;;8.50;;
41829;SDS011;38614;43.472;23.936;2023-03-25T07:02:16;16.50;;;8.65;;
41829;SDS011;38614;43.472;23.936;2023-03-25T07:05:04;18.90;;;9.57;;
41829;SDS011;38614;43.472;23.936;2023-03-25T07:07:52;12.48;;;7.60;;
41829;SDS011;38614;43.472;23.936;2023-03-25T07:10:42;19.70;;;8.07;;
41829;SDS011;38614;43.472;23.936;2023-03-25T07:13:30;18.42;;;7.78;;
41829;SDS011;38614;43.472;23.936;2023-03-25T07:16:18;14.70;;;8.73;;
41829;SDS011;38614;43.472;23.936;2023-03-25T07:19:13;14.50;;;8.23;;
41829;SDS011;38614;43.472;23.936;2023-03-25T07:22:06;11.68;;;7.38;;
41829;SDS011;38614;43.472;23.936;2023-03-25T07:24:54;16.23;;;8.57;;
41829;SDS011;38614;43.472;23.936;2023-03-25T07:27:42;17.77;;;9.65;;
41829;SDS011;38614;43.472;23.936;2023-03-25T07:30:34;11.68;;;7.43;;
41829;SDS011;38614;43.472;23.936;2023-03-25T07:33:22;11.65;;;7.63;;
41829;SDS011;38614;43.472;23.936;2023-03-25T07:36:10;14.07;;;8.82;;
41829;SDS011;38614;43.472;23.936;2023-03-25T07:38:58;15.90;;;8.50;;
41829;SDS011;38614;43.472;23.936;2023-03-25T07:41:46;10.20;;;7.38;;
41829;SDS011;38614;43.472;23.936;2023-03-25T07:44:53;14.07;;;7.50;;
41829;SDS011;38614;43.472;23.936;2023-03-25T07:47:41;14.02;;;7.65;;
41829;SDS011;38614;43.472;23.936;2023-03-25T07:50:29;9.90;;;6.53;;
41829;SDS011;38614;43.472;23.936;2023-03-25T07:53:17;10.43;;;6.53;;
41829;SDS011;38614;43.472;23.936;2023-03-25T07:56:05;10.57;;;6.38;;
41829;SDS011;38614;43.472;23.936;2023-03-25T07:58:53;14.52;;;7.80;;
41829;SDS011;38614;43.472;23.936;2023-03-25T08:01:49;11.60;;;6.68;;
41829;SDS011;38614;43.472;23.936;2023-03-25T08:04:37;15.18;;;7.80;;
41829;SDS011;38614;43.472;23.936;2023-03-25T08:07:24;12.10;;;7.32;;
41829;SDS011;38614;43.472;23.936;2023-03-25T08:10:15;12.25;;;6.43;;
41829;SDS011;38614;43.472;23.936;2023-03-25T08:13:04;9.07;;;6.05;;
41829;SDS011;38614;43.472;23.936;2023-03-25T08:15:52;8.98;;;5.97;;
41829;SDS011;38614;43.472;23.936;2023-03-25T08:18:40;12.43;;;6.43;;
41829;SDS011;38614;43.472;23.936;2023-03-25T08:21:31;13.00;;;6.47;;
41829;SDS011;38614;43.472;23.936;2023-03-25T08:24:19;8.63;;;5.05;;
41829;SDS011;38614;43.472;23.936;2023-03-25T08:27:09;6.78;;;4.55;;
41829;SDS011;38614;43.472;23.936;2023-03-25T08:30:03;12.60;;;5.15;;
41829;SDS011;38614;43.472;23.936;2023-03-25T08:32:51;9.82;;;4.88;;
41829;SDS011;38614;43.472;23.936;2023-03-25T08:35:42;9.38;;;5.30;;
41829;SDS011;38614;43.472;23.936;2023-03-25T08:38:31;10.45;;;6.82;;
41829;SDS011;38614;43.472;23.936;2023-03-25T08:41:20;11.45;;;6.50;;
41829;SDS011;38614;43.472;23.936;2023-03-25T08:44:12;9.85;;;5.70;;
41829;SDS011;38614;43.472;23.936;2023-03-25T08:47:00;10.48;;;5.07;;
41829;SDS011;38614;43.472;23.936;2023-03-25T08:50:06;7.28;;;4.35;;
41829;SDS011;38614;43.472;23.936;2023-03-25T08:52:55;5.22;;;3.00;;
41829;SDS011;38614;43.472;23.936;2023-03-25T08:55:44;9.65;;;3.90;;
41829;SDS011;38614;43.472;23.936;2023-03-25T08:58:32;5.20;;;3.80;;
41829;SDS011;38614;43.472;23.936;2023-03-25T09:01:20;9.38;;;4.10;;
41829;SDS011;38614;43.472;23.936;2023-03-25T09:04:08;6.95;;;3.63;;
41829;SDS011;38614;43.472;23.936;2023-03-25T09:06:56;3.92;;;2.63;;
41829;SDS011;38614;43.472;23.936;2023-03-25T09:09:58;3.20;;;1.73;;
41829;SDS011;38614;43.472;23.936;2023-03-25T09:12:45;4.68;;;2.13;;
41829;SDS011;38614;43.472;23.936;2023-03-25T09:15:33;2.45;;;1.85;;
41829;SDS011;38614;43.472;23.936;2023-03-25T09:18:21;3.28;;;1.83;;
41829;SDS011;38614;43.472;23.936;2023-03-25T09:21:09;2.22;;;1.92;;
41829;SDS011;38614;43.472;23.936;2023-03-25T09:23:57;7.30;;;1.63;;
41829;SDS011;38614;43.472;23.936;2023-03-25T09:26:44;9.85;;;3.40;;
41829;SDS011;38614;43.472;23.936;2023-03-25T09:29:32;6.60;;;2.42;;
41829;SDS011;38614;43.472;23.936;2023-03-25T09:32:20;5.72;;;2.85;;
41829;SDS011;38614;43.472;23.936;2023-03-25T09:35:08;3.67;;;2.20;;
41829;SDS011;38614;43.472;23.936;2023-03-25T09:37:56;7.10;;;3.03;;
41829;SDS011;38614;43.472;23.936;2023-03-25T09:40:44;4.30;;;2.88;;
41829;SDS011;38614;43.472;23.936;2023-03-25T09:43:54;4.53;;;2.83;;
41829;SDS011;38614;43.472;23.936;2023-03-25T09:47:06;3.45;;;2.30;;
41829;SDS011;38614;43.472;23.936;2023-03-25T09:50:04;8.32;;;3.38;;
41829;SDS011;38614;43.472;23.936;2023-03-25T09:52:59;3.88;;;2.85;;
41829;SDS011;38614;43.472;23.936;2023-03-25T09:55:53;4.97;;;2.92;;
41829;SDS011;38614;43.472;23.936;2023-03-25T09:58:43;3.63;;;3.25;;
41829;SDS011;38614;43.472;23.936;2023-03-25T10:01:39;5.10;;;3.45;;
41829;SDS011;38614;43.472;23.936;2023-03-25T10:11:00;4.63;;;2.67;;
41829;SDS011;38614;43.472;23.936;2023-03-25T10:13:54;4.25;;;2.67;;
41829;SDS011;38614;43.472;23.936;2023-03-25T10:16:57;7.13;;;2.88;;
41829;SDS011;38614;43.472;23.936;2023-03-25T10:26:09;6.40;;;3.10;;
41829;SDS011;38614;43.472;23.936;2023-03-25T10:29:02;4.05;;;2.90;;
41829;SDS011;38614;43.472;23.936;2023-03-25T10:31:55;3.97;;;2.28;;
41829;SDS011;38614;43.472;23.936;2023-03-25T10:34:48;2.72;;;2.30;;
41829;SDS011;38614;43.472;23.936;2023-03-25T10:37:39;2.47;;;1.88;;
41829;SDS011;38614;43.472;23.936;2023-03-25T10:49:03;5.30;;;1.75;;
41829;SDS011;38614;43.472;23.936;2023-03-25T10:51:51;2.70;;;1.83;;
41829;SDS011;38614;43.472;23.936;2023-03-25T10:54:43;4.97;;;1.83;;
41829;SDS011;38614;43.472;23.936;2023-03-25T10:57:35;3.33;;;1.52;;
41829;SDS011;38614;43.472;23.936;2023-03-25T11:00:23;7.65;;;1.65;;
41829;SDS011;38614;43.472;23.936;2023-03-25T11:03:19;3.28;;;2.10;;
41829;SDS011;38614;43.472;23.936;2023-03-25T11:06:20;5.20;;;2.03;;
41829;SDS011;38614;43.472;23.936;2023-03-25T11:12:21;2.65;;;1.75;;
41829;SDS011;38614;43.472;23.936;2023-03-25T11:15:29;4.43;;;2.65;;
41829;SDS011;38614;43.472;23.936;2023-03-25T11:18:21;2.92;;;1.95;;
41829;SDS011;38614;43.472;23.936;2023-03-25T11:21:24;3.22;;;1.33;;
41829;SDS011;38614;43.472;23.936;2023-03-25T11:24:17;4.13;;;1.50;;
41829;SDS011;38614;43.472;23.936;2023-03-25T11:27:06;4.10;;;1.13;;
41829;SDS011;38614;43.472;23.936;2023-03-25T11:29:56;10.55;;;1.23;;
41829;SDS011;38614;43.472;23.936;2023-03-25T11:32:55;4.65;;;1.13;;
41829;SDS011;38614;43.472;23.936;2023-03-25T11:35:47;3.20;;;1.33;;
41829;SDS011;38614;43.472;23.936;2023-03-25T11:38:36;3.00;;;1.02;;
41829;SDS011;38614;43.472;23.936;2023-03-25T11:41:29;6.13;;;0.80;;
41829;SDS011;38614;43.472;23.936;2023-03-25T11:44:27;2.88;;;1.00;;
41829;SDS011;38614;43.472;23.936;2023-03-25T11:47:33;2.35;;;0.88;;
41829;SDS011;38614;43.472;23.936;2023-03-25T11:50:25;0.90;;;0.60;;
41829;SDS011;38614;43.472;23.936;2023-03-25T11:53:15;2.17;;;0.90;;
41829;SDS011;38614;43.472;23.936;2023-03-25T11:56:05;2.15;;;0.90;;
41829;SDS011;38614;43.472;23.936;2023-03-25T11:59:00;5.00;;;1.10;;
41829;SDS011;38614;43.472;23.936;2023-03-25T12:01:49;1.45;;;0.50;;
41829;SDS011;38614;43.472;23.936;2023-03-25T12:08:09;6.30;;;0.50;;
41829;SDS011;38614;43.472;23.936;2023-03-25T12:11:06;3.72;;;0.65;;
41829;SDS011;38614;43.472;23.936;2023-03-25T12:26:43;1.02;;;0.77;;
41829;SDS011;38614;43.472;23.936;2023-03-25T12:40:20;4.78;;;1.00;;
41829;SDS011;38614;43.472;23.936;2023-03-25T12:43:29;2.53;;;1.20;;
41829;SDS011;38614;43.472;23.936;2023-03-25T12:53:22;3.33;;;1.10;;
41829;SDS011;38614;43.472;23.936;2023-03-25T12:59:37;1.00;;;0.75;;
41829;SDS011;38614;43.472;23.936;2023-03-25T13:06:25;3.42;;;0.70;;
41829;SDS011;38614;43.472;23.936;2023-03-25T13:12:52;3.25;;;1.92;;
41829;SDS011;38614;43.472;23.936;2023-03-25T13:15:46;3.72;;;1.20;;
41829;SDS011;38614;43.472;23.936;2023-03-25T13:18:40;3.90;;;1.20;;
41829;SDS011;38614;43.472;23.936;2023-03-25T13:21:44;0.93;;;0.68;;
41829;SDS011;38614;43.472;23.936;2023-03-25T13:24:44;4.32;;;1.58;;
41829;SDS011;38614;43.472;23.936;2023-03-25T13:27:38;2.22;;;0.90;;
41829;SDS011;38614;43.472;23.936;2023-03-25T13:30:38;3.58;;;0.88;;
41829;SDS011;38614;43.472;23.936;2023-03-25T13:33:29;4.03;;;1.40;;
41829;SDS011;38614;43.472;23.936;2023-03-25T13:36:25;2.17;;;1.42;;
41829;SDS011;38614;43.472;23.936;2023-03-25T13:39:26;3.25;;;1.73;;
41829;SDS011;38614;43.472;23.936;2023-03-25T13:45:44;1.30;;;0.98;;
41829;SDS011;38614;43.472;23.936;2023-03-25T13:52:05;2.47;;;1.65;;
41829;SDS011;38614;43.472;23.936;2023-03-25T13:54:57;1.45;;;1.10;;
41829;SDS011;38614;43.472;23.936;2023-03-25T14:15:05;2.55;;;1.02;;
41829;SDS011;38614;43.472;23.936;2023-03-25T14:18:20;2.47;;;1.58;;
41829;SDS011;38614;43.472;23.936;2023-03-25T14:27:25;3.38;;;1.10;;
41829;SDS011;38614;43.472;23.936;2023-03-25T14:30:31;3.85;;;2.15;;
41829;SDS011;38614;43.472;23.936;2023-03-25T14:33:22;3.03;;;2.00;;
41829;SDS011;38614;43.472;23.936;2023-03-25T14:36:12;2.25;;;1.42;;
41829;SDS011;38614;43.472;23.936;2023-03-25T14:39:00;1.60;;;1.42;;
41829;SDS011;38614;43.472;23.936;2023-03-25T14:44:47;3.25;;;2.08;;
41829;SDS011;38614;43.472;23.936;2023-03-25T14:47:50;4.10;;;2.22;;
41829;SDS011;38614;43.472;23.936;2023-03-25T14:50:42;3.40;;;1.70;;
41829;SDS011;38614;43.472;23.936;2023-03-25T14:53:31;1.92;;;1.30;;
41829;SDS011;38614;43.472;23.936;2023-03-25T14:56:23;5.13;;;2.08;;
41829;SDS011;38614;43.472;23.936;2023-03-25T14:59:19;5.32;;;2.50;;
41829;SDS011;38614;43.472;23.936;2023-03-25T15:13:56;2.30;;;1.55;;
41829;SDS011;38614;43.472;23.936;2023-03-25T15:20:38;2.28;;;1.38;;
41829;SDS011;38614;43.472;23.936;2023-03-25T15:26:37;4.10;;;1.33;;
41829;SDS011;38614;43.472;23.936;2023-03-25T15:35:35;4.65;;;2.30;;
41829;SDS011;38614;43.472;23.936;2023-03-25T15:53:45;8.80;;;3.22;;
41829;SDS011;38614;43.472;23.936;2023-03-25T15:56:43;5.45;;;2.30;;
41829;SDS011;38614;43.472;23.936;2023-03-25T15:59:42;4.18;;;2.40;;
41829;SDS011;38614;43.472;23.936;2023-03-25T16:02:38;2.67;;;1.95;;
41829;SDS011;38614;43.472;23.936;2023-03-25T16:05:33;6.30;;;2.33;;
41829;SDS011;38614;43.472;23.936;2023-03-25T16:08:42;5.13;;;2.15;;
41829;SDS011;38614;43.472;23.936;2023-03-25T16:11:33;3.35;;;2.17;;
41829;SDS011;38614;43.472;23.936;2023-03-25T16:14:21;4.35;;;2.28;;
41829;SDS011;38614;43.472;23.936;2023-03-25T16:17:10;10.85;;;5.45;;
41829;SDS011;38614;43.472;23.936;2023-03-25T16:19:59;11.95;;;5.05;;
41829;SDS011;38614;43.472;23.936;2023-03-25T16:22:53;16.08;;;6.35;;
41829;SDS011;38614;43.472;23.936;2023-03-25T16:25:49;9.25;;;5.47;;
41829;SDS011;38614;43.472;23.936;2023-03-25T16:28:41;10.13;;;6.93;;
41829;SDS011;38614;43.472;23.936;2023-03-25T16:31:31;17.75;;;7.53;;
41829;SDS011;38614;43.472;23.936;2023-03-25T16:34:32;20.98;;;7.70;;
41829;SDS011;38614;43.472;23.936;2023-03-25T16:37:22;19.88;;;9.43;;
41829;SDS011;38614;43.472;23.936;2023-03-25T16:40:11;23.17;;;11.40;;
41829;SDS011;38614;43.472;23.936;2023-03-25T16:43:06;22.52;;;10.63;;
41829;SDS011;38614;43.472;23.936;2023-03-25T16:45:59;32.65;;;14.73;;
41829;SDS011;38614;43.472;23.936;2023-03-25T16:48:53;60.83;;;24.70;;
41829;SDS011;38614;43.472;23.936;2023-03-25T16:51:43;61.83;;;25.55;;
41829;SDS011;38614;43.472;23.936;2023-03-25T16:54:36;89.13;;;32.92;;
41829;SDS011;38614;43.472;23.936;2023-03-25T16:57:33;74.65;;;32.03;;
41829;SDS011;38614;43.472;23.936;2023-03-25T17:00:25;85.72;;;34.50;;
41829;SDS011;38614;43.472;23.936;2023-03-25T17:03:44;75.85;;;31.40;;
41829;SDS011;38614;43.472;23.936;2023-03-25T17:06:36;74.87;;;32.90;;
41829;SDS011;38614;43.472;23.936;2023-03-25T17:12:21;78.25;;;33.75;;
41829;SDS011;38614;43.472;23.936;2023-03-25T17:15:12;73.07;;;30.48;;
41829;SDS011;38614;43.472;23.936;2023-03-25T17:18:05;65.00;;;29.75;;
41829;SDS011;38614;43.472;23.936;2023-03-25T17:21:01;63.60;;;25.27;;
41829;SDS011;38614;43.472;23.936;2023-03-25T17:23:50;60.10;;;25.80;;
41829;SDS011;38614;43.472;23.936;2023-03-25T17:26:52;59.92;;;27.20;;
41829;SDS011;38614;43.472;23.936;2023-03-25T17:29:53;62.95;;;26.63;;
41829;SDS011;38614;43.472;23.936;2023-03-25T17:32:43;76.20;;;33.45;;
41829;SDS011;38614;43.472;23.936;2023-03-25T17:35:31;65.93;;;28.98;;
41829;SDS011;38614;43.472;23.936;2023-03-25T17:38:26;73.10;;;30.10;;
41829;SDS011;38614;43.472;23.936;2023-03-25T17:41:37;87.57;;;37.50;;
41829;SDS011;38614;43.472;23.936;2023-03-25T17:44:36;90.68;;;38.78;;
41829;SDS011;38614;43.472;23.936;2023-03-25T17:47:25;87.35;;;39.17;;
41829;SDS011;38614;43.472;23.936;2023-03-25T17:50:14;88.90;;;39.67;;
41829;SDS011;38614;43.472;23.936;2023-03-25T17:53:06;93.60;;;39.70;;
41829;SDS011;38614;43.472;23.936;2023-03-25T17:55:53;91.97;;;41.10;;
41829;SDS011;38614;43.472;23.936;2023-03-25T17:58:42;89.55;;;40.67;;
41829;SDS011;38614;43.472;23.936;2023-03-25T18:01:30;87.57;;;36.58;;
41829;SDS011;38614;43.472;23.936;2023-03-25T18:04:18;84.90;;;39.17;;
41829;SDS011;38614;43.472;23.936;2023-03-25T18:07:09;88.53;;;38.58;;
41829;SDS011;38614;43.472;23.936;2023-03-25T18:09:57;96.75;;;41.40;;
41829;SDS011;38614;43.472;23.936;2023-03-25T18:12:45;87.28;;;38.70;;
41829;SDS011;38614;43.472;23.936;2023-03-25T18:15:33;80.97;;;36.90;;
41829;SDS011;38614;43.472;23.936;2023-03-25T18:18:25;85.95;;;35.85;;
41829;SDS011;38614;43.472;23.936;2023-03-25T18:21:14;96.43;;;39.72;;
41829;SDS011;38614;43.472;23.936;2023-03-25T18:24:03;74.25;;;36.55;;
41829;SDS011;38614;43.472;23.936;2023-03-25T18:26:51;83.90;;;38.42;;
41829;SDS011;38614;43.472;23.936;2023-03-25T18:29:41;97.38;;;42.20;;
41829;SDS011;38614;43.472;23.936;2023-03-25T18:32:35;113.90;;;46.67;;
41829;SDS011;38614;43.472;23.936;2023-03-25T18:35:23;103.57;;;49.38;;
41829;SDS011;38614;43.472;23.936;2023-03-25T18:41:02;118.95;;;51.60;;
41829;SDS011;38614;43.472;23.936;2023-03-25T18:43:50;123.18;;;54.78;;
41829;SDS011;38614;43.472;23.936;2023-03-25T18:46:38;129.05;;;54.72;;
41829;SDS011;38614;43.472;23.936;2023-03-25T18:49:27;143.13;;;57.33;;
41829;SDS011;38614;43.472;23.936;2023-03-25T18:52:20;154.07;;;57.90;;
41829;SDS011;38614;43.472;23.936;2023-03-25T18:55:10;154.15;;;55.22;;
41829;SDS011;38614;43.472;23.936;2023-03-25T18:57:59;162.90;;;55.00;;
41829;SDS011;38614;43.472;23.936;2023-03-25T19:00:47;145.02;;;55.88;;
41829;SDS011;38614;43.472;23.936;2023-03-25T19:03:40;139.90;;;51.20;;
41829;SDS011;38614;43.472;23.936;2023-03-25T19:06:29;157.68;;;53.97;;
41829;SDS011;38614;43.472;23.936;2023-03-25T19:09:17;139.38;;;47.60;;
41829;SDS011;38614;43.472;23.936;2023-03-25T19:12:05;146.10;;;50.63;;
41829;SDS011;38614;43.472;23.936;2023-03-25T19:14:52;130.10;;;50.80;;
41829;SDS011;38614;43.472;23.936;2023-03-25T19:17:41;142.55;;;55.72;;
41829;SDS011;38614;43.472;23.936;2023-03-25T19:20:31;198.95;;;75.47;;
41829;SDS011;38614;43.472;23.936;2023-03-25T19:23:21;153.65;;;54.75;;
41829;SDS011;38614;43.472;23.936;2023-03-25T19:26:09;135.38;;;50.33;;
41829;SDS011;38614;43.472;23.936;2023-03-25T19:28:57;135.55;;;45.08;;
41829;SDS011;38614;43.472;23.936;2023-03-25T19:31:44;135.77;;;42.33;;
41829;SDS011;38614;43.472;23.936;2023-03-25T19:34:32;113.82;;;32.85;;
41829;SDS011;38614;43.472;23.936;2023-03-25T19:37:20;130.73;;;36.45;;
41829;SDS011;38614;43.472;23.936;2023-03-25T19:40:09;124.10;;;34.72;;
41829;SDS011;38614;43.472;23.936;2023-03-25T19:42:58;103.45;;;32.95;;
41829;SDS011;38614;43.472;23.936;2023-03-25T19:45:56;73.18;;;27.45;;